sensor_id;sensor_type;location;lat;lon;timestamp;temperature;humidity
48007;DHT22;33771;48.180;11.400;2023-10-19T00:01:58;7.40;99.90
48007;DHT22;33771;48.180;11.400;2023-10-19T00:04:27;7.40;99.90
48007;DHT22;33771;48.180;11.400;2023-10-19T00:06:57;7.40;99.90
48007;DHT22;33771;48.180;11.400;2023-10-19T00:09:23;7.40;99.90
48007;DHT22;33771;48.180;11.400;2023-10-19T00:11:49;7.30;99.90
48007;DHT22;33771;48.180;11.400;2023-10-19T00:14:17;7.30;99.90
48007;DHT22;33771;48.180;11.400;2023-10-19T00:16:44;7.30;99.90
48007;DHT22;33771;48.180;11.400;2023-10-19T00:19:18;7.30;99.90
48007;DHT22;33771;48.180;11.400;2023-10-19T00:21:46;7.30;99.90
48007;DHT22;33771;48.180;11.400;2023-10-19T00:24:21;7.30;99.90
48007;DHT22;33771;48.180;11.400;2023-10-19T00:26:48;7.40;99.90
48007;DHT22;33771;48.180;11.400;2023-10-19T00:29:17;7.40;99.90
48007;DHT22;33771;48.180;11.400;2023-10-19T00:31:59;7.40;99.90
48007;DHT22;33771;48.180;11.400;2023-10-19T00:34:26;7.40;99.90
48007;DHT22;33771;48.180;11.400;2023-10-19T00:36:54;7.40;99.90
48007;DHT22;33771;48.180;11.400;2023-10-19T00:39:21;7.40;99.90
48007;DHT22;33771;48.180;11.400;2023-10-19T00:41:47;7.40;99.90
48007;DHT22;33771;48.180;11.400;2023-10-19T00:44:13;7.40;99.90
48007;DHT22;33771;48.180;11.400;2023-10-19T00:46:53;7.40;99.90
48007;DHT22;33771;48.180;11.400;2023-10-19T00:49:38;7.50;99.90
48007;DHT22;33771;48.180;11.400;2023-10-19T00:52:06;7.50;99.90
48007;DHT22;33771;48.180;11.400;2023-10-19T00:54:53;7.40;99.90
48007;DHT22;33771;48.180;11.400;2023-10-19T00:57:25;7.50;99.90
48007;DHT22;33771;48.180;11.400;2023-10-19T01:00:04;7.50;99.90
48007;DHT22;33771;48.180;11.400;2023-10-19T01:02:46;7.40;99.90
48007;DHT22;33771;48.180;11.400;2023-10-19T01:05:12;7.50;99.90
48007;DHT22;33771;48.180;11.400;2023-10-19T01:07:40;7.50;99.90
48007;DHT22;33771;48.180;11.400;2023-10-19T01:10:07;7.50;99.90
48007;DHT22;33771;48.180;11.400;2023-10-19T01:12:46;7.50;99.90
48007;DHT22;33771;48.180;11.400;2023-10-19T01:17:50;7.50;99.90
48007;DHT22;33771;48.180;11.400;2023-10-19T01:23:02;7.50;99.90
48007;DHT22;33771;48.180;11.400;2023-10-19T01:25:49;7.50;99.90
48007;DHT22;33771;48.180;11.400;2023-10-19T01:28:31;7.50;99.90
48007;DHT22;33771;48.180;11.400;2023-10-19T01:31:06;7.50;99.90
48007;DHT22;33771;48.180;11.400;2023-10-19T01:33:32;7.50;99.90
48007;DHT22;33771;48.180;11.400;2023-10-19T01:36:00;7.50;99.90
48007;DHT22;33771;48.180;11.400;2023-10-19T01:38:57;7.50;99.90
48007;DHT22;33771;48.180;11.400;2023-10-19T01:41:27;7.50;99.90
48007;DHT22;33771;48.180;11.400;2023-10-19T01:43:53;7.50;99.90
48007;DHT22;33771;48.180;11.400;2023-10-19T01:46:21;7.50;99.90
48007;DHT22;33771;48.180;11.400;2023-10-19T01:49:00;7.50;99.90
48007;DHT22;33771;48.180;11.400;2023-10-19T01:51:28;7.50;99.90
48007;DHT22;33771;48.180;11.400;2023-10-19T01:53:55;7.50;99.90
48007;DHT22;33771;48.180;11.400;2023-10-19T01:56:21;7.50;99.90
48007;DHT22;33771;48.180;11.400;2023-10-19T01:58:47;7.50;99.90
48007;DHT22;33771;48.180;11.400;2023-10-19T02:01:14;7.50;99.90
48007;DHT22;33771;48.180;11.400;2023-10-19T02:03:47;7.50;99.90
48007;DHT22;33771;48.180;11.400;2023-10-19T02:06:14;7.50;99.90
48007;DHT22;33771;48.180;11.400;2023-10-19T02:08:50;7.50;99.90
48007;DHT22;33771;48.180;11.400;2023-10-19T02:11:24;7.50;99.90
48007;DHT22;33771;48.180;11.400;2023-10-19T02:13:51;7.50;99.90
48007;DHT22;33771;48.180;11.400;2023-10-19T02:16:18;7.50;99.90
48007;DHT22;33771;48.180;11.400;2023-10-19T02:18:49;7.50;99.90
48007;DHT22;33771;48.180;11.400;2023-10-19T02:21:16;7.60;99.90
48007;DHT22;33771;48.180;11.400;2023-10-19T02:23:47;7.60;99.90
48007;DHT22;33771;48.180;11.400;2023-10-19T02:26:16;7.60;99.90
48007;DHT22;33771;48.180;11.400;2023-10-19T02:28:42;7.60;99.90
48007;DHT22;33771;48.180;11.400;2023-10-19T02:31:09;7.60;99.90
48007;DHT22;33771;48.180;11.400;2023-10-19T02:33:44;7.60;99.90
48007;DHT22;33771;48.180;11.400;2023-10-19T02:36:12;7.60;99.90
48007;DHT22;33771;48.180;11.400;2023-10-19T02:38:42;7.60;99.90
48007;DHT22;33771;48.180;11.400;2023-10-19T02:41:17;7.70;99.90
48007;DHT22;33771;48.180;11.400;2023-10-19T02:43:43;7.70;99.90
48007;DHT22;33771;48.180;11.400;2023-10-19T02:46:15;7.70;99.90
48007;DHT22;33771;48.180;11.400;2023-10-19T02:48:46;7.70;99.90
48007;DHT22;33771;48.180;11.400;2023-10-19T02:51:15;7.70;99.90
48007;DHT22;33771;48.180;11.400;2023-10-19T02:53:41;7.70;99.90
48007;DHT22;33771;48.180;11.400;2023-10-19T02:56:15;7.70;99.90
48007;DHT22;33771;48.180;11.400;2023-10-19T02:58:49;7.70;99.90
48007;DHT22;33771;48.180;11.400;2023-10-19T03:01:16;7.70;99.90
48007;DHT22;33771;48.180;11.400;2023-10-19T03:03:45;7.70;99.90
48007;DHT22;33771;48.180;11.400;2023-10-19T03:06:11;7.70;99.90
48007;DHT22;33771;48.180;11.400;2023-10-19T03:08:37;7.70;99.90
48007;DHT22;33771;48.180;11.400;2023-10-19T03:11:03;7.70;99.90
48007;DHT22;33771;48.180;11.400;2023-10-19T03:13:29;7.70;99.90
48007;DHT22;33771;48.180;11.400;2023-10-19T03:15:55;7.70;99.90
48007;DHT22;33771;48.180;11.400;2023-10-19T03:18:20;7.70;99.90
48007;DHT22;33771;48.180;11.400;2023-10-19T03:20:46;7.70;99.90
48007;DHT22;33771;48.180;11.400;2023-10-19T03:23:11;7.70;99.90
48007;DHT22;33771;48.180;11.400;2023-10-19T03:25:39;7.70;99.90
48007;DHT22;33771;48.180;11.400;2023-10-19T03:28:23;7.80;99.90
48007;DHT22;33771;48.180;11.400;2023-10-19T03:30:51;7.70;99.90
48007;DHT22;33771;48.180;11.400;2023-10-19T03:33:17;7.80;99.90
48007;DHT22;33771;48.180;11.400;2023-10-19T03:35:43;7.80;99.90
48007;DHT22;33771;48.180;11.400;2023-10-19T03:38:09;7.80;99.90
48007;DHT22;33771;48.180;11.400;2023-10-19T03:40:42;7.80;99.90
48007;DHT22;33771;48.180;11.400;2023-10-19T03:43:17;7.80;99.90
48007;DHT22;33771;48.180;11.400;2023-10-19T03:45:44;7.80;99.90
48007;DHT22;33771;48.180;11.400;2023-10-19T03:48:21;7.80;99.90
48007;DHT22;33771;48.180;11.400;2023-10-19T03:50:52;7.80;99.90
48007;DHT22;33771;48.180;11.400;2023-10-19T03:53:19;7.80;99.90
48007;DHT22;33771;48.180;11.400;2023-10-19T03:55:47;7.80;99.90
48007;DHT22;33771;48.180;11.400;2023-10-19T03:58:13;7.80;99.90
48007;DHT22;33771;48.180;11.400;2023-10-19T04:00:38;7.80;99.90
48007;DHT22;33771;48.180;11.400;2023-10-19T04:03:04;7.80;99.90
48007;DHT22;33771;48.180;11.400;2023-10-19T04:05:30;7.80;99.90
48007;DHT22;33771;48.180;11.400;2023-10-19T04:07:56;7.80;99.90
48007;DHT22;33771;48.180;11.400;2023-10-19T04:10:25;7.80;99.90
48007;DHT22;33771;48.180;11.400;2023-10-19T04:12:59;7.90;99.90
48007;DHT22;33771;48.180;11.400;2023-10-19T04:15:26;7.90;99.90
48007;DHT22;33771;48.180;11.400;2023-10-19T04:17:52;7.90;99.90
48007;DHT22;33771;48.180;11.400;2023-10-19T04:20:20;7.90;99.90
48007;DHT22;33771;48.180;11.400;2023-10-19T04:22:48;7.90;99.90
48007;DHT22;33771;48.180;11.400;2023-10-19T04:25:14;7.90;99.90
48007;DHT22;33771;48.180;11.400;2023-10-19T04:27:45;8.00;99.90
48007;DHT22;33771;48.180;11.400;2023-10-19T04:30:12;8.00;99.90
48007;DHT22;33771;48.180;11.400;2023-10-19T04:32:48;8.00;99.90
48007;DHT22;33771;48.180;11.400;2023-10-19T04:35:14;8.00;99.90
48007;DHT22;33771;48.180;11.400;2023-10-19T04:37:52;8.10;99.90
48007;DHT22;33771;48.180;11.400;2023-10-19T04:40:20;8.10;99.90
48007;DHT22;33771;48.180;11.400;2023-10-19T04:42:46;8.10;99.90
48007;DHT22;33771;48.180;11.400;2023-10-19T04:45:12;8.10;99.90
48007;DHT22;33771;48.180;11.400;2023-10-19T04:47:38;8.10;99.90
48007;DHT22;33771;48.180;11.400;2023-10-19T04:50:05;8.20;99.90
48007;DHT22;33771;48.180;11.400;2023-10-19T04:52:31;8.20;99.90
48007;DHT22;33771;48.180;11.400;2023-10-19T04:54:58;8.20;99.90
48007;DHT22;33771;48.180;11.400;2023-10-19T04:57:24;8.20;99.90
48007;DHT22;33771;48.180;11.400;2023-10-19T04:59:49;8.20;99.90
48007;DHT22;33771;48.180;11.400;2023-10-19T05:02:15;8.20;99.90
48007;DHT22;33771;48.180;11.400;2023-10-19T05:04:41;8.20;99.90
48007;DHT22;33771;48.180;11.400;2023-10-19T05:07:07;8.20;99.90
48007;DHT22;33771;48.180;11.400;2023-10-19T05:09:37;8.20;99.90
48007;DHT22;33771;48.180;11.400;2023-10-19T05:12:05;8.20;99.90
48007;DHT22;33771;48.180;11.400;2023-10-19T05:14:37;8.20;99.90
48007;DHT22;33771;48.180;11.400;2023-10-19T05:17:03;8.20;99.90
48007;DHT22;33771;48.180;11.400;2023-10-19T05:19:33;8.20;99.90
48007;DHT22;33771;48.180;11.400;2023-10-19T05:22:03;8.20;99.90
48007;DHT22;33771;48.180;11.400;2023-10-19T05:24:29;8.20;99.90
48007;DHT22;33771;48.180;11.400;2023-10-19T05:26:55;8.20;99.90
48007;DHT22;33771;48.180;11.400;2023-10-19T05:29:21;8.20;99.90
48007;DHT22;33771;48.180;11.400;2023-10-19T05:31:47;8.20;99.90
48007;DHT22;33771;48.180;11.400;2023-10-19T05:34:13;8.20;99.90
48007;DHT22;33771;48.180;11.400;2023-10-19T05:36:38;8.20;99.90
48007;DHT22;33771;48.180;11.400;2023-10-19T05:39:10;8.20;99.90
48007;DHT22;33771;48.180;11.400;2023-10-19T05:41:36;8.20;99.90
48007;DHT22;33771;48.180;11.400;2023-10-19T05:44:03;8.20;99.90
48007;DHT22;33771;48.180;11.400;2023-10-19T05:46:29;8.20;99.90
48007;DHT22;33771;48.180;11.400;2023-10-19T05:48:54;8.20;99.90
48007;DHT22;33771;48.180;11.400;2023-10-19T05:51:21;8.20;99.90
48007;DHT22;33771;48.180;11.400;2023-10-19T05:53:47;8.20;99.90
48007;DHT22;33771;48.180;11.400;2023-10-19T05:56:14;8.10;99.90
48007;DHT22;33771;48.180;11.400;2023-10-19T05:58:42;8.10;99.90
48007;DHT22;33771;48.180;11.400;2023-10-19T06:01:07;8.10;99.90
48007;DHT22;33771;48.180;11.400;2023-10-19T06:03:33;8.10;99.90
48007;DHT22;33771;48.180;11.400;2023-10-19T06:05:58;8.10;99.90
48007;DHT22;33771;48.180;11.400;2023-10-19T06:08:24;8.10;99.90
48007;DHT22;33771;48.180;11.400;2023-10-19T06:10:53;8.10;99.90
48007;DHT22;33771;48.180;11.400;2023-10-19T06:13:19;8.10;99.90
48007;DHT22;33771;48.180;11.400;2023-10-19T06:15:44;8.10;99.90
48007;DHT22;33771;48.180;11.400;2023-10-19T06:18:10;8.10;99.90
48007;DHT22;33771;48.180;11.400;2023-10-19T06:20:36;8.10;99.90
48007;DHT22;33771;48.180;11.400;2023-10-19T06:23:02;8.10;99.90
48007;DHT22;33771;48.180;11.400;2023-10-19T06:25:32;8.10;99.90
48007;DHT22;33771;48.180;11.400;2023-10-19T06:27:58;8.10;99.90
48007;DHT22;33771;48.180;11.400;2023-10-19T06:30:25;8.10;99.90
48007;DHT22;33771;48.180;11.400;2023-10-19T06:32:53;8.10;99.90
48007;DHT22;33771;48.180;11.400;2023-10-19T06:35:20;8.20;99.90
48007;DHT22;33771;48.180;11.400;2023-10-19T06:37:47;8.20;99.90
48007;DHT22;33771;48.180;11.400;2023-10-19T06:40:14;8.20;99.90
48007;DHT22;33771;48.180;11.400;2023-10-19T06:42:41;8.30;99.90
48007;DHT22;33771;48.180;11.400;2023-10-19T06:45:07;8.20;99.90
48007;DHT22;33771;48.180;11.400;2023-10-19T06:47:33;8.30;99.90
48007;DHT22;33771;48.180;11.400;2023-10-19T06:50:06;8.30;99.90
48007;DHT22;33771;48.180;11.400;2023-10-19T06:52:34;8.40;99.90
48007;DHT22;33771;48.180;11.400;2023-10-19T06:55:02;8.40;99.90
48007;DHT22;33771;48.180;11.400;2023-10-19T06:57:28;8.40;99.90
48007;DHT22;33771;48.180;11.400;2023-10-19T06:59:54;8.50;99.90
48007;DHT22;33771;48.180;11.400;2023-10-19T07:02:19;8.60;99.90
48007;DHT22;33771;48.180;11.400;2023-10-19T07:04:46;8.70;99.90
48007;DHT22;33771;48.180;11.400;2023-10-19T07:07:12;8.70;99.90
48007;DHT22;33771;48.180;11.400;2023-10-19T07:09:39;8.80;99.90
48007;DHT22;33771;48.180;11.400;2023-10-19T07:12:06;8.90;99.90
48007;DHT22;33771;48.180;11.400;2023-10-19T07:14:33;8.90;99.90
48007;DHT22;33771;48.180;11.400;2023-10-19T07:16:59;9.00;99.90
48007;DHT22;33771;48.180;11.400;2023-10-19T07:19:25;9.10;99.90
48007;DHT22;33771;48.180;11.400;2023-10-19T07:21:51;9.10;99.90
48007;DHT22;33771;48.180;11.400;2023-10-19T07:24:23;9.20;99.90
48007;DHT22;33771;48.180;11.400;2023-10-19T07:26:50;9.30;99.90
48007;DHT22;33771;48.180;11.400;2023-10-19T07:29:20;9.30;99.90
48007;DHT22;33771;48.180;11.400;2023-10-19T07:31:46;9.50;99.90
48007;DHT22;33771;48.180;11.400;2023-10-19T07:34:11;9.50;99.90
48007;DHT22;33771;48.180;11.400;2023-10-19T07:36:40;9.60;99.90
48007;DHT22;33771;48.180;11.400;2023-10-19T07:39:08;9.70;99.90
48007;DHT22;33771;48.180;11.400;2023-10-19T07:41:42;9.80;99.90
48007;DHT22;33771;48.180;11.400;2023-10-19T07:44:08;10.00;99.90
48007;DHT22;33771;48.180;11.400;2023-10-19T07:46:33;10.00;99.90
48007;DHT22;33771;48.180;11.400;2023-10-19T07:48:59;10.10;99.90
48007;DHT22;33771;48.180;11.400;2023-10-19T07:51:26;10.20;99.90
48007;DHT22;33771;48.180;11.400;2023-10-19T07:53:51;10.40;99.90
48007;DHT22;33771;48.180;11.400;2023-10-19T07:56:17;10.40;99.90
48007;DHT22;33771;48.180;11.400;2023-10-19T07:58:43;10.60;99.90
48007;DHT22;33771;48.180;11.400;2023-10-19T08:01:08;10.70;99.90
48007;DHT22;33771;48.180;11.400;2023-10-19T08:03:34;10.80;99.90
48007;DHT22;33771;48.180;11.400;2023-10-19T08:06:00;10.90;99.90
48007;DHT22;33771;48.180;11.400;2023-10-19T08:08:26;11.00;99.90
48007;DHT22;33771;48.180;11.400;2023-10-19T08:10:58;11.10;99.90
48007;DHT22;33771;48.180;11.400;2023-10-19T08:13:24;11.20;99.90
48007;DHT22;33771;48.180;11.400;2023-10-19T08:15:51;11.30;99.90
48007;DHT22;33771;48.180;11.400;2023-10-19T08:18:17;11.40;99.90
48007;DHT22;33771;48.180;11.400;2023-10-19T08:20:44;11.50;99.90
48007;DHT22;33771;48.180;11.400;2023-10-19T08:23:14;11.60;99.90
48007;DHT22;33771;48.180;11.400;2023-10-19T08:25:42;11.70;99.90
48007;DHT22;33771;48.180;11.400;2023-10-19T08:28:09;11.80;99.90
48007;DHT22;33771;48.180;11.400;2023-10-19T08:30:36;11.90;99.90
48007;DHT22;33771;48.180;11.400;2023-10-19T08:33:03;12.10;99.90
48007;DHT22;33771;48.180;11.400;2023-10-19T08:35:28;12.20;99.90
48007;DHT22;33771;48.180;11.400;2023-10-19T08:37:56;12.40;99.90
48007;DHT22;33771;48.180;11.400;2023-10-19T08:40:25;12.60;99.90
48007;DHT22;33771;48.180;11.400;2023-10-19T08:42:52;12.70;99.90
48007;DHT22;33771;48.180;11.400;2023-10-19T08:45:19;12.80;99.90
48007;DHT22;33771;48.180;11.400;2023-10-19T08:47:57;13.00;99.90
48007;DHT22;33771;48.180;11.400;2023-10-19T08:50:24;13.10;99.90
48007;DHT22;33771;48.180;11.400;2023-10-19T08:52:54;13.10;99.90
48007;DHT22;33771;48.180;11.400;2023-10-19T08:55:20;13.20;99.90
48007;DHT22;33771;48.180;11.400;2023-10-19T08:57:48;13.30;99.90
48007;DHT22;33771;48.180;11.400;2023-10-19T09:00:15;13.30;99.90
48007;DHT22;33771;48.180;11.400;2023-10-19T09:02:43;13.30;99.90
48007;DHT22;33771;48.180;11.400;2023-10-19T09:05:09;13.40;99.90
48007;DHT22;33771;48.180;11.400;2023-10-19T09:07:47;13.40;99.90
48007;DHT22;33771;48.180;11.400;2023-10-19T09:10:18;13.40;99.90
48007;DHT22;33771;48.180;11.400;2023-10-19T09:12:44;13.40;99.90
48007;DHT22;33771;48.180;11.400;2023-10-19T09:15:22;13.50;99.90
48007;DHT22;33771;48.180;11.400;2023-10-19T09:17:51;13.50;99.90
48007;DHT22;33771;48.180;11.400;2023-10-19T09:20:20;13.50;99.90
48007;DHT22;33771;48.180;11.400;2023-10-19T09:22:55;13.50;99.90
48007;DHT22;33771;48.180;11.400;2023-10-19T09:25:23;13.50;99.90
48007;DHT22;33771;48.180;11.400;2023-10-19T09:27:50;13.50;99.90
48007;DHT22;33771;48.180;11.400;2023-10-19T09:30:19;13.50;99.90
48007;DHT22;33771;48.180;11.400;2023-10-19T09:32:47;13.60;99.90
48007;DHT22;33771;48.180;11.400;2023-10-19T09:35:14;13.60;99.90
48007;DHT22;33771;48.180;11.400;2023-10-19T09:37:41;13.70;99.90
48007;DHT22;33771;48.180;11.400;2023-10-19T09:40:09;13.80;99.90
48007;DHT22;33771;48.180;11.400;2023-10-19T09:42:42;13.80;99.90
48007;DHT22;33771;48.180;11.400;2023-10-19T09:45:12;13.90;99.90
48007;DHT22;33771;48.180;11.400;2023-10-19T09:47:39;14.00;99.90
48007;DHT22;33771;48.180;11.400;2023-10-19T09:50:07;14.10;99.90
48007;DHT22;33771;48.180;11.400;2023-10-19T09:52:33;14.20;99.90
48007;DHT22;33771;48.180;11.400;2023-10-19T09:55:06;14.30;99.90
48007;DHT22;33771;48.180;11.400;2023-10-19T09:57:44;14.40;99.90
48007;DHT22;33771;48.180;11.400;2023-10-19T10:00:12;14.50;99.90
48007;DHT22;33771;48.180;11.400;2023-10-19T10:02:39;14.60;99.90
48007;DHT22;33771;48.180;11.400;2023-10-19T10:08:36;14.90;99.90
48007;DHT22;33771;48.180;11.400;2023-10-19T10:11:21;15.00;99.90
48007;DHT22;33771;48.180;11.400;2023-10-19T10:13:48;15.20;99.90
48007;DHT22;33771;48.180;11.400;2023-10-19T10:16:35;15.20;99.90
48007;DHT22;33771;48.180;11.400;2023-10-19T10:19:04;15.30;99.90
48007;DHT22;33771;48.180;11.400;2023-10-19T10:21:30;15.30;99.90
48007;DHT22;33771;48.180;11.400;2023-10-19T10:24:00;15.30;99.90
48007;DHT22;33771;48.180;11.400;2023-10-19T10:26:30;15.30;99.90
48007;DHT22;33771;48.180;11.400;2023-10-19T10:29:14;15.30;99.90
48007;DHT22;33771;48.180;11.400;2023-10-19T10:31:46;15.40;99.90
48007;DHT22;33771;48.180;11.400;2023-10-19T10:37:07;15.50;99.90
48007;DHT22;33771;48.180;11.400;2023-10-19T10:39:34;15.50;99.90
48007;DHT22;33771;48.180;11.400;2023-10-19T10:42:04;15.60;99.90
48007;DHT22;33771;48.180;11.400;2023-10-19T10:44:43;15.60;99.90
48007;DHT22;33771;48.180;11.400;2023-10-19T10:47:11;15.60;99.90
48007;DHT22;33771;48.180;11.400;2023-10-19T10:49:56;15.70;99.90
48007;DHT22;33771;48.180;11.400;2023-10-19T10:52:34;15.80;99.90
48007;DHT22;33771;48.180;11.400;2023-10-19T10:55:12;15.80;99.90
48007;DHT22;33771;48.180;11.400;2023-10-19T10:57:41;15.90;99.90
48007;DHT22;33771;48.180;11.400;2023-10-19T11:00:09;15.90;99.90
48007;DHT22;33771;48.180;11.400;2023-10-19T11:02:40;15.90;99.90
48007;DHT22;33771;48.180;11.400;2023-10-19T11:05:10;16.00;99.90
48007;DHT22;33771;48.180;11.400;2023-10-19T11:07:41;16.10;99.90
48007;DHT22;33771;48.180;11.400;2023-10-19T11:10:07;16.10;99.90
48007;DHT22;33771;48.180;11.400;2023-10-19T11:12:35;16.20;99.90
48007;DHT22;33771;48.180;11.400;2023-10-19T11:15:01;16.20;99.90
48007;DHT22;33771;48.180;11.400;2023-10-19T11:17:42;16.30;99.90
48007;DHT22;33771;48.180;11.400;2023-10-19T11:20:08;16.30;99.90
48007;DHT22;33771;48.180;11.400;2023-10-19T11:22:51;16.30;99.90
48007;DHT22;33771;48.180;11.400;2023-10-19T11:25:22;16.30;99.90
48007;DHT22;33771;48.180;11.400;2023-10-19T11:27:49;16.30;99.90
48007;DHT22;33771;48.180;11.400;2023-10-19T11:30:26;16.30;99.90
48007;DHT22;33771;48.180;11.400;2023-10-19T11:32:52;16.30;99.90
48007;DHT22;33771;48.180;11.400;2023-10-19T11:35:22;16.20;99.90
48007;DHT22;33771;48.180;11.400;2023-10-19T11:37:52;16.20;99.90
48007;DHT22;33771;48.180;11.400;2023-10-19T11:40:22;16.20;99.90
48007;DHT22;33771;48.180;11.400;2023-10-19T11:42:51;16.30;99.90
48007;DHT22;33771;48.180;11.400;2023-10-19T11:45:18;16.40;99.90
48007;DHT22;33771;48.180;11.400;2023-10-19T11:47:44;16.50;99.90
48007;DHT22;33771;48.180;11.400;2023-10-19T11:50:11;16.50;99.90
48007;DHT22;33771;48.180;11.400;2023-10-19T11:52:41;16.60;99.90
48007;DHT22;33771;48.180;11.400;2023-10-19T11:55:08;16.70;99.90
48007;DHT22;33771;48.180;11.400;2023-10-19T11:57:34;16.70;99.90
48007;DHT22;33771;48.180;11.400;2023-10-19T12:00:02;16.80;99.90
48007;DHT22;33771;48.180;11.400;2023-10-19T12:02:34;16.90;99.90
48007;DHT22;33771;48.180;11.400;2023-10-19T12:05:01;16.90;99.90
48007;DHT22;33771;48.180;11.400;2023-10-19T12:07:28;17.10;99.90
48007;DHT22;33771;48.180;11.400;2023-10-19T12:09:53;17.20;99.90
48007;DHT22;33771;48.180;11.400;2023-10-19T12:12:19;17.20;99.90
48007;DHT22;33771;48.180;11.400;2023-10-19T12:14:44;17.40;99.90
48007;DHT22;33771;48.180;11.400;2023-10-19T12:17:11;17.40;99.90
48007;DHT22;33771;48.180;11.400;2023-10-19T12:19:36;17.50;99.90
48007;DHT22;33771;48.180;11.400;2023-10-19T12:22:02;17.50;99.90
48007;DHT22;33771;48.180;11.400;2023-10-19T12:24:28;17.50;99.90
48007;DHT22;33771;48.180;11.400;2023-10-19T12:26:54;17.40;99.90
48007;DHT22;33771;48.180;11.400;2023-10-19T12:29:20;17.50;99.90
48007;DHT22;33771;48.180;11.400;2023-10-19T12:31:47;17.40;99.90
48007;DHT22;33771;48.180;11.400;2023-10-19T12:34:13;17.40;99.90
48007;DHT22;33771;48.180;11.400;2023-10-19T12:36:39;17.50;99.90
48007;DHT22;33771;48.180;11.400;2023-10-19T12:39:06;17.50;99.90
48007;DHT22;33771;48.180;11.400;2023-10-19T12:41:32;17.60;99.90
48007;DHT22;33771;48.180;11.400;2023-10-19T12:43:59;17.60;99.90
48007;DHT22;33771;48.180;11.400;2023-10-19T12:46:27;17.60;99.90
48007;DHT22;33771;48.180;11.400;2023-10-19T12:48:55;17.60;99.90
48007;DHT22;33771;48.180;11.400;2023-10-19T12:51:21;17.70;99.90
48007;DHT22;33771;48.180;11.400;2023-10-19T12:53:53;17.70;99.90
48007;DHT22;33771;48.180;11.400;2023-10-19T12:56:20;17.60;99.90
48007;DHT22;33771;48.180;11.400;2023-10-19T12:58:46;17.60;99.90
48007;DHT22;33771;48.180;11.400;2023-10-19T13:01:13;17.50;99.90
48007;DHT22;33771;48.180;11.400;2023-10-19T13:03:43;17.50;99.90
48007;DHT22;33771;48.180;11.400;2023-10-19T13:06:11;17.50;99.90
48007;DHT22;33771;48.180;11.400;2023-10-19T13:08:38;17.50;99.90
48007;DHT22;33771;48.180;11.400;2023-10-19T13:11:06;17.50;99.90
48007;DHT22;33771;48.180;11.400;2023-10-19T13:13:32;17.50;99.90
48007;DHT22;33771;48.180;11.400;2023-10-19T13:15:57;17.50;99.90
48007;DHT22;33771;48.180;11.400;2023-10-19T13:18:23;17.60;99.90
48007;DHT22;33771;48.180;11.400;2023-10-19T13:20:55;17.50;99.90
48007;DHT22;33771;48.180;11.400;2023-10-19T13:23:22;17.50;99.90
48007;DHT22;33771;48.180;11.400;2023-10-19T13:25:51;17.40;99.90
48007;DHT22;33771;48.180;11.400;2023-10-19T13:28:23;17.40;99.90
48007;DHT22;33771;48.180;11.400;2023-10-19T13:30:53;17.40;99.90
48007;DHT22;33771;48.180;11.400;2023-10-19T13:33:19;17.30;99.90
48007;DHT22;33771;48.180;11.400;2023-10-19T13:35:47;17.20;99.90
48007;DHT22;33771;48.180;11.400;2023-10-19T13:38:17;17.10;99.90
48007;DHT22;33771;48.180;11.400;2023-10-19T13:40:43;17.10;99.90
48007;DHT22;33771;48.180;11.400;2023-10-19T13:43:11;17.00;99.90
48007;DHT22;33771;48.180;11.400;2023-10-19T13:45:40;16.90;99.90
48007;DHT22;33771;48.180;11.400;2023-10-19T13:48:07;16.90;99.90
48007;DHT22;33771;48.180;11.400;2023-10-19T13:50:34;16.80;99.90
48007;DHT22;33771;48.180;11.400;2023-10-19T13:53:00;16.70;99.90
48007;DHT22;33771;48.180;11.400;2023-10-19T13:55:26;16.60;99.90
48007;DHT22;33771;48.180;11.400;2023-10-19T13:57:52;16.50;99.90
48007;DHT22;33771;48.180;11.400;2023-10-19T14:00:19;16.40;99.90
48007;DHT22;33771;48.180;11.400;2023-10-19T14:02:49;16.20;99.90
48007;DHT22;33771;48.180;11.400;2023-10-19T14:05:15;16.10;99.90
48007;DHT22;33771;48.180;11.400;2023-10-19T14:07:40;16.10;99.90
48007;DHT22;33771;48.180;11.400;2023-10-19T14:10:07;16.00;99.90
48007;DHT22;33771;48.180;11.400;2023-10-19T14:12:33;15.90;99.90
48007;DHT22;33771;48.180;11.400;2023-10-19T14:14:59;15.90;99.90
48007;DHT22;33771;48.180;11.400;2023-10-19T14:17:24;15.80;99.90
48007;DHT22;33771;48.180;11.400;2023-10-19T14:19:51;15.70;99.90
48007;DHT22;33771;48.180;11.400;2023-10-19T14:22:16;15.70;99.90
48007;DHT22;33771;48.180;11.400;2023-10-19T14:24:43;15.60;99.90
48007;DHT22;33771;48.180;11.400;2023-10-19T14:27:08;15.70;99.90
48007;DHT22;33771;48.180;11.400;2023-10-19T14:29:34;15.60;99.90
48007;DHT22;33771;48.180;11.400;2023-10-19T14:32:00;15.50;99.90
48007;DHT22;33771;48.180;11.400;2023-10-19T14:34:25;15.40;99.90
48007;DHT22;33771;48.180;11.400;2023-10-19T14:36:54;15.40;99.90
48007;DHT22;33771;48.180;11.400;2023-10-19T14:39:20;15.40;99.90
48007;DHT22;33771;48.180;11.400;2023-10-19T14:41:46;15.30;99.90
48007;DHT22;33771;48.180;11.400;2023-10-19T14:44:12;15.30;99.90
48007;DHT22;33771;48.180;11.400;2023-10-19T14:46:37;15.30;99.90
48007;DHT22;33771;48.180;11.400;2023-10-19T14:49:03;15.30;99.90
48007;DHT22;33771;48.180;11.400;2023-10-19T14:51:28;15.30;99.90
48007;DHT22;33771;48.180;11.400;2023-10-19T14:53:54;15.30;99.90
48007;DHT22;33771;48.180;11.400;2023-10-19T14:56:20;15.30;99.90
48007;DHT22;33771;48.180;11.400;2023-10-19T14:58:46;15.30;99.90
48007;DHT22;33771;48.180;11.400;2023-10-19T15:01:12;15.30;99.90
48007;DHT22;33771;48.180;11.400;2023-10-19T15:03:42;15.30;99.90
48007;DHT22;33771;48.180;11.400;2023-10-19T15:06:08;15.20;99.90
48007;DHT22;33771;48.180;11.400;2023-10-19T15:08:34;15.20;99.90
48007;DHT22;33771;48.180;11.400;2023-10-19T15:10:59;15.20;99.90
48007;DHT22;33771;48.180;11.400;2023-10-19T15:13:25;15.10;99.90
48007;DHT22;33771;48.180;11.400;2023-10-19T15:15:51;15.10;99.90
48007;DHT22;33771;48.180;11.400;2023-10-19T15:18:17;15.00;99.90
48007;DHT22;33771;48.180;11.400;2023-10-19T15:20:43;15.00;99.90
48007;DHT22;33771;48.180;11.400;2023-10-19T15:23:09;14.90;99.90
48007;DHT22;33771;48.180;11.400;2023-10-19T15:25:37;14.90;99.90
48007;DHT22;33771;48.180;11.400;2023-10-19T15:28:02;14.80;99.90
48007;DHT22;33771;48.180;11.400;2023-10-19T15:30:28;14.80;99.90
48007;DHT22;33771;48.180;11.400;2023-10-19T15:32:54;14.80;99.90
48007;DHT22;33771;48.180;11.400;2023-10-19T15:35:20;14.70;99.90
48007;DHT22;33771;48.180;11.400;2023-10-19T15:37:50;14.60;99.90
48007;DHT22;33771;48.180;11.400;2023-10-19T15:40:16;14.60;99.90
48007;DHT22;33771;48.180;11.400;2023-10-19T15:42:43;14.50;99.90